Latest Weather Observations for Low Rocky Point

IDT60801

Issued at 11:05 am EST Thursday 31 July 2014 (issued every 30 minutes, with the page automatically refreshed every 10 minutes)

About weather observations | Map of weather stations | Latest weather observations for TAS | Other Formats
Station Details ID: 097080 Name: LOW ROCKY POINT Lat: -42.98 Lon: 145.50 Height: 34.0 m
Data from the previous 72 hours. | See also: Recent months at Low Rocky Point
Date/Time
EST
Temp
°C
App
Temp
°C
Dew
Point
Rel
Hum
%
Delta-T
°C
Wind Press
QNH
hPa
Press
MSL
hPa
Rain
since 9 am
mm
Dir
 
Spd
km/h
Gust
km/h
Spd
kts
Gust
kts
31/11:00am 6.6 1.9 6.0 96 0.3 W 20 26 11 14 983.8 983.9 7.0
31/10:30am 6.6 1.2 6.2 97 0.2 WSW 24 33 13 18 985.6 - 5.6
31/10:00am 6.8 2.2 6.4 97 0.2 SW 20 28 11 15 985.5 985.5 4.0
31/09:30am 6.8 0.7 6.5 98 0.1 WSW 28 37 15 20 986.7 - 2.0
31/09:00am 7.4 0.7 7.3 99 0.0 WSW 32 43 17 23 986.6 986.6 50.4
31/08:30am 8.1 3.5 8.0 99 0.0 W 22 32 12 17 986.4 - 46.6
31/08:00am 7.7 4.7 7.6 99 0.0 WNW 13 19 7 10 985.8 985.8 43.2
31/07:30am 7.3 3.0 7.0 98 0.1 N 19 26 10 14 986.9 - 41.2
31/07:00am 7.5 4.0 7.1 97 0.2 N 15 20 8 11 988.1 988.1 38.8
31/06:30am 7.8 2.6 7.2 96 0.3 N 24 30 13 16 988.0 - 35.8
31/06:00am 8.6 2.4 7.8 95 0.4 NW 30 37 16 20 987.9 987.9 35.0
31/05:30am 8.5 1.3 7.6 94 0.4 NW 35 44 19 24 988.5 - 34.8
31/05:00am 8.6 0.7 7.7 94 0.4 WNW 39 46 21 25 989.3 989.3 34.2
31/04:30am 8.2 -0.2 7.3 94 0.4 WNW 41 50 22 27 989.3 - 33.8
31/04:00am 8.1 -0.7 7.3 95 0.4 W 43 50 23 27 989.6 989.6 33.6
31/03:30am 7.9 -1.0 7.5 97 0.2 W 44 59 24 32 989.7 - 33.4
31/03:00am 8.1 0.5 7.7 97 0.2 W 37 48 20 26 990.5 990.5 31.6
31/02:30am 8.6 1.2 8.3 98 0.1 WSW 37 50 20 27 990.1 - 30.4
31/02:00am 9.2 1.6 9.1 99 0.0 W 39 50 21 27 990.1 990.1 30.0
31/01:30am 9.2 0.8 9.1 99 0.0 WSW 43 57 23 31 990.0 - 29.4
31/01:22am 8.7 0.2 8.4 98 0.1 WSW 43 57 23 31 989.8 - 29.0
31/01:00am 10.5 -0.2 10.3 99 0.1 WNW 57 74 31 40 989.0 989.0 27.8
31/12:40am 10.8 -0.6 10.6 99 0.1 WNW 61 80 33 43 988.9 - 27.4
31/12:30am 10.7 -1.5 10.5 99 0.1 WNW 65 82 35 44 988.9 - 27.0
31/12:27am 10.7 -0.7 10.5 99 0.1 WNW 61 80 33 43 988.9 - 26.8
31/12:00am 10.4 -0.7 10.2 99 0.1 WNW 59 70 32 38 989.0 989.0 25.4
 
Date/Time
EST
Temp
°C
App
Temp
°C
Dew
Point
Rel
Hum
%
Delta-T
°C
Wind Press
QNH
hPa
Press
MSL
hPa
Rain
since 9 am
mm
Dir
 
Spd
km/h
Gust
km/h
Spd
kts
Gust
kts
30/11:35pm 10.3 -1.2 10.1 99 0.1 WNW 61 80 33 43 989.3 - 24.6
30/11:30pm 10.2 -1.0 10.0 99 0.1 WNW 59 72 32 39 988.9 - 24.0
30/11:26pm 9.9 -1.7 9.8 99 0.1 WNW 61 72 33 39 988.8 - 23.4
30/11:00pm 12.2 -3.1 10.9 92 0.7 NW 82 104 44 56 987.9 987.9 20.4
30/10:30pm 12.8 -3.6 10.2 84 1.3 NW 87 117 47 63 988.2 - 19.8
30/10:00pm 12.8 -1.8 10.7 87 1.1 NW 78 102 42 55 988.7 988.7 19.8
30/09:30pm 12.6 -0.7 11.0 90 0.8 NW 72 96 39 52 989.2 - 19.6
30/09:00pm 12.4 -2.5 11.0 91 0.7 NW 80 111 43 60 988.9 988.9 19.6
30/08:30pm 12.9 -1.3 10.6 86 1.2 NW 76 102 41 55 989.6 - 19.2
30/08:11pm 12.6 -0.8 10.8 89 0.9 NW 72 113 39 61 989.5 - 19.2
30/08:00pm 13.0 0.1 11.4 90 0.9 NW 70 95 38 51 990.0 990.0 19.2
30/07:30pm 12.7 -1.2 11.8 94 0.5 NW 76 100 41 54 990.0 - 19.2
30/07:01pm 12.2 -1.9 11.1 93 0.6 NW 76 95 41 51 990.4 - 19.0
30/07:00pm 12.2 -2.3 11.1 93 0.6 NW 78 95 42 51 990.5 990.5 19.0
30/06:30pm 13.0 0.5 10.7 86 1.2 NW 67 85 36 46 990.6 - 19.0
30/06:00pm 12.8 -1.1 10.3 85 1.3 NW 74 98 40 53 991.1 991.1 19.0
30/05:30pm 12.9 -0.6 10.4 85 1.3 NW 72 96 39 52 991.6 - 18.8
30/05:00pm 12.7 -0.7 10.8 88 1.0 NW 72 96 39 52 991.7 991.7 18.8
30/04:30pm 12.6 -0.9 11.7 94 0.5 NW 74 95 40 51 991.4 - 18.8
30/04:11pm 12.5 1.6 12.2 98 0.2 NW 61 82 33 44 991.6 - 18.8
30/04:09pm 12.6 2.5 12.3 98 0.2 NW 57 72 31 39 991.8 - 18.8
30/04:00pm 12.2 -1.6 12.0 99 0.1 NW 76 102 41 55 991.4 991.4 18.8
30/03:44pm 12.2 -0.3 12.0 99 0.1 NW 69 91 37 49 991.4 - 18.8
30/03:42pm 12.0 -0.7 11.8 99 0.1 NW 70 85 38 46 991.4 - 18.8
30/03:31pm 11.7 2.7 11.5 99 0.1 NW 50 76 27 41 991.9 - 18.6
30/03:30pm 11.6 2.9 11.4 99 0.1 NW 48 65 26 35 991.9 - 18.6
30/03:00pm 10.5 1.9 10.3 99 0.1 WNW 46 59 25 32 992.8 992.9 18.0
30/02:30pm 10.2 2.8 10.0 99 0.1 W 39 48 21 26 993.2 - 15.6
30/02:08pm 10.1 3.1 9.9 99 0.1 W 37 56 20 30 992.9 - 13.0
30/02:00pm 10.3 3.3 10.1 99 0.1 W 37 44 20 24 993.1 993.2 11.8
30/01:30pm 10.1 3.1 9.9 99 0.1 W 37 46 20 25 993.7 - 8.2
30/01:00pm 10.3 1.6 9.8 97 0.3 W 46 56 25 30 994.1 994.2 5.0
30/12:30pm 10.2 1.3 9.1 93 0.5 W 46 57 25 31 994.4 - 1.4
30/12:17pm 10.9 2.4 9.3 90 0.8 W 44 57 24 31 994.4 - 0.8
30/12:00pm 13.0 0.4 10.4 84 1.4 NW 67 85 36 46 994.0 994.1 0.2
30/11:47am 12.7 1.3 10.6 87 1.1 WNW 61 80 33 43 994.5 - 0.2
30/11:45am 12.7 2.0 10.4 86 1.2 WNW 57 67 31 36 994.7 - 0.2
30/11:30am 12.7 -3.0 10.2 85 1.3 NW 83 109 45 59 994.0 - 0.0
30/11:17am 12.6 -5.3 10.5 87 1.1 NW 95 113 51 61 993.7 - 0.0
30/11:00am 12.5 -1.4 10.4 87 1.1 NW 74 98 40 53 994.1 994.2 0.0
30/10:30am 12.6 -2.2 10.0 84 1.3 NW 78 104 42 56 994.6 - 0.0
30/10:00am 12.9 -1.6 9.4 79 1.8 NW 76 95 41 51 994.5 994.6 0.0
30/09:30am 12.6 -1.2 9.4 81 1.6 NW 72 96 39 52 994.7 - 0.0
30/09:00am 12.6 -0.7 9.1 79 1.8 NW 69 91 37 49 994.9 995.0 7.0
30/08:30am 12.1 -2.6 8.9 81 1.6 WNW 76 102 41 55 994.8 - 7.0
30/08:00am 12.3 -1.7 8.4 77 2.0 NW 72 93 39 50 994.8 994.9 6.8
30/07:30am 11.4 -2.9 9.0 85 1.2 NW 74 95 40 51 994.6 - 6.8
30/07:00am 11.6 -2.3 7.5 76 2.0 NW 70 93 38 50 994.8 994.9 6.4
30/06:30am 11.7 -0.8 7.6 76 2.0 NW 63 85 34 46 994.9 - 6.4
30/06:09am 11.7 -1.0 7.0 73 2.3 NW 63 82 34 44 994.6 - 6.4
30/06:00am 11.6 -0.8 6.7 72 2.4 NW 61 76 33 41 994.7 994.8 6.4
30/05:47am 11.3 -0.9 5.6 68 2.6 NW 59 80 32 43 994.9 - 6.4
30/05:30am 11.2 -1.4 5.7 69 2.5 NW 61 78 33 42 995.5 - 6.4
30/05:12am 11.0 -0.9 5.1 67 2.7 WNW 57 76 31 41 996.0 - 6.4
30/05:00am 10.9 -3.1 4.1 63 3.1 WNW 67 80 36 43 996.0 996.1 6.4
30/04:30am 10.8 -1.5 5.1 68 2.6 WNW 59 70 32 38 996.2 - 6.4
30/04:10am 10.6 -2.8 3.4 61 3.2 WNW 63 82 34 44 996.5 - 6.4
30/04:00am 10.6 -3.2 3.4 61 3.2 W 65 82 35 44 996.5 996.6 6.4
30/03:53am 10.7 -1.7 4.8 67 2.7 W 59 78 32 42 996.5 - 6.4
30/03:52am 10.8 -1.2 4.9 67 2.7 W 57 69 31 37 996.5 - 6.4
30/03:30am 10.7 -5.6 3.0 59 3.3 WNW 78 96 42 52 996.4 - 6.4
30/03:00am 10.9 -4.3 5.0 67 2.7 W 74 93 40 50 996.7 996.8 6.4
30/02:32am 10.7 -5.8 4.0 63 3.0 W 80 98 43 53 996.4 - 6.4
30/02:30am 10.7 -6.3 3.5 61 3.2 W 82 98 44 53 996.2 - 6.4
30/02:00am 10.7 -5.4 4.0 63 3.0 W 78 100 42 54 995.4 995.5 6.4
30/01:30am 10.5 -6.7 5.5 71 2.3 W 85 109 46 59 994.9 - 6.4
30/01:00am 8.7 -8.3 6.3 85 1.1 W 85 122 46 66 994.5 994.6 6.4
30/12:30am 10.5 -6.4 5.1 69 2.5 WNW 83 109 45 59 993.3 - 6.2
30/12:00am 9.5 -7.4 5.1 74 2.0 WNW 83 109 45 59 992.9 993.0 6.2
 
Date/Time
EST
Temp
°C
App
Temp
°C
Dew
Point
Rel
Hum
%
Delta-T
°C
Wind Press
QNH
hPa
Press
MSL
hPa
Rain
since 9 am
mm
Dir
 
Spd
km/h
Gust
km/h
Spd
kts
Gust
kts
29/11:30pm 9.2 -8.3 7.5 89 0.8 W 89 122 48 66 991.9 - 6.2
29/11:00pm 9.4 -8.1 8.9 97 0.2 W 91 111 49 60 991.5 991.5 6.0
29/10:35pm 7.2 -11.8 5.8 91 0.6 WNW 95 133 51 72 990.8 - 6.0
29/10:30pm 10.6 -6.3 6.6 76 1.9 WNW 85 109 46 59 990.8 - 5.2
29/10:03pm 8.1 -9.1 7.3 95 0.4 W 87 109 47 59 990.7 - 5.2
29/10:00pm 7.7 -13.7 6.8 94 0.4 W 109 139 59 75 990.9 990.9 5.2
29/09:58pm 7.8 -15.3 6.3 90 0.7 W 117 139 63 75 990.6 - 5.2
29/09:57pm 8.7 -9.0 6.5 86 1.0 W 89 139 48 75 990.6 - 5.0
29/09:30pm 11.9 -6.2 6.4 69 2.6 WNW 91 109 49 59 989.4 - 4.6
29/09:00pm 11.9 -5.6 5.5 65 3.0 WNW 87 107 47 58 989.4 989.4 4.6
29/08:30pm 11.9 -7.9 4.9 62 3.2 WNW 98 122 53 66 988.8 - 4.6
29/08:00pm 12.3 -4.9 7.2 71 2.5 WNW 87 106 47 57 987.9 987.9 4.6
29/07:30pm 11.5 -6.1 7.0 74 2.2 WNW 89 109 48 59 987.3 - 4.6
29/07:00pm 12.3 -6.2 6.4 67 2.8 WNW 93 113 50 61 986.7 986.7 4.4
29/06:30pm 12.1 -6.8 6.4 68 2.7 WNW 95 113 51 61 986.0 - 4.4
29/06:00pm 12.5 -7.4 7.6 72 2.4 WNW 102 126 55 68 985.0 985.1 4.4
29/05:56pm 12.4 -8.0 7.3 71 2.5 WNW 104 126 56 68 984.6 - 4.4
29/05:53pm 12.5 -7.4 7.8 73 2.3 WNW 102 117 55 63 984.6 - 4.4
29/05:30pm 11.8 -3.4 9.9 88 1.0 WNW 80 106 43 57 984.9 - 4.4
29/05:03pm 10.5 -2.7 10.3 99 0.1 WNW 70 89 38 48 984.5 - 4.4
29/05:00pm 10.3 -2.9 10.1 99 0.1 WNW 70 83 38 45 984.4 984.5 4.4
29/04:56pm 10.0 -3.1 9.9 99 0.1 WNW 69 83 37 45 984.3 - 4.4
29/04:41pm 9.8 -8.3 9.7 99 0.1 WNW 95 132 51 71 984.7 - 3.8
29/04:32pm 10.0 -8.0 9.9 99 0.1 WNW 95 113 51 61 984.5 - 3.8
29/04:30pm 9.8 -4.7 9.7 99 0.1 WNW 76 104 41 56 984.5 - 3.8
29/04:16pm 9.5 -3.7 9.4 99 0.0 WNW 69 91 37 49 984.5 - 3.8
29/04:15pm 9.3 -4.2 9.2 99 0.0 WNW 70 83 38 45 984.6 - 3.8
29/04:00pm 9.8 -7.0 8.7 93 0.5 WNW 87 109 47 59 984.6 984.7 2.6
29/03:30pm 13.6 -1.3 10.8 83 1.5 NW 80 104 43 56 983.7 - 2.0
29/03:01pm 13.1 -1.7 11.2 88 1.0 NW 80 100 43 54 983.9 - 2.0
29/03:00pm 13.0 -1.5 11.1 88 1.0 NW 78 95 42 51 983.8 983.9 2.0
29/02:30pm 13.1 -2.9 10.3 83 1.5 NW 85 106 46 57 984.1 - 2.0
29/02:00pm 13.0 -2.7 10.2 83 1.5 NW 83 102 45 55 984.8 984.9 2.0
29/01:30pm 11.9 -2.6 9.6 86 1.2 NW 76 98 41 53 986.0 - 2.0
29/01:00pm 12.1 -2.3 8.6 79 1.8 NW 74 100 40 54 987.0 987.0 1.8
29/12:45pm 12.6 -3.8 8.7 77 1.9 NW 85 106 46 57 986.7 - 1.8
29/12:44pm 12.6 -4.6 8.7 77 1.9 NW 89 106 48 57 986.7 - 1.8
29/12:30pm 12.3 -1.2 9.1 81 1.6 NW 70 95 38 51 987.2 - 1.8
29/12:00pm 11.2 -2.5 8.1 81 1.5 NW 70 91 38 49 988.1 988.1 1.8
29/11:35am 11.3 -2.3 8.7 84 1.3 NW 70 106 38 57 988.0 - 1.8
29/11:30am 11.5 -0.8 9.9 90 0.8 NW 65 85 35 46 988.3 - 1.8
29/11:11am 10.0 -3.5 9.2 95 0.4 WNW 70 89 38 48 988.7 - 1.8
29/11:05am 9.1 -6.1 8.3 95 0.4 WNW 78 89 42 48 988.8 - 1.6
29/11:00am 10.2 -8.4 8.5 89 0.8 NW 96 119 52 64 987.9 987.9 1.0
29/10:59am 10.8 -2.3 8.4 85 1.2 NW 67 113 36 61 988.2 - 1.0
29/10:52am 11.4 -0.8 9.1 86 1.1 WNW 63 82 34 44 988.6 - 1.0
29/10:35am 9.5 -4.7 7.8 89 0.8 NW 72 83 39 45 988.9 - 1.0
29/10:33am 9.3 -9.6 7.3 87 0.9 NW 96 119 52 64 988.5 - 0.8
29/10:32am 9.8 -10.2 7.2 84 1.2 NW 102 119 55 64 988.4 - 0.4
29/10:30am 12.7 -1.5 7.8 72 2.4 NW 72 113 39 61 988.5 - 0.0
29/10:00am 12.7 -1.9 7.8 72 2.4 NW 74 95 40 51 989.0 989.0 0.0
29/09:30am 12.6 -1.4 8.7 77 1.9 NW 72 95 39 51 988.8 - 0.0
29/09:00am 12.5 -1.9 8.6 77 2.0 NW 74 95 40 51 988.8 988.8 16.4
29/08:33am 12.6 0.1 9.2 80 1.7 NW 65 83 35 45 988.9 - 16.4
29/08:30am 12.5 -0.4 9.0 79 1.8 NW 67 83 36 45 989.0 - 16.4
29/08:00am 12.5 -1.2 9.9 84 1.3 NW 72 95 39 51 988.7 988.7 16.4
29/07:30am 11.5 -2.0 10.4 93 0.6 NW 72 91 39 49 988.5 - 16.4
29/07:25am 11.3 -3.1 10.0 92 0.7 NW 76 96 41 52 988.2 - 16.4
29/07:14am 12.0 -5.7 11.1 94 0.5 NW 95 117 51 63 988.2 - 16.4
29/07:13am 12.0 -1.3 11.1 94 0.5 NW 72 117 39 63 988.2 - 16.4
29/07:00am 12.5 -1.4 11.6 94 0.5 NW 76 93 41 50 988.6 988.6 16.0
29/06:30am 12.8 -0.9 11.0 89 0.9 NW 74 98 40 53 988.4 - 14.8
29/06:00am 12.6 -1.4 11.5 93 0.6 NW 76 100 41 54 988.5 988.5 14.6
29/05:30am 12.2 -2.5 11.7 97 0.3 NW 80 100 43 54 988.7 - 14.6
29/05:12am 12.2 -1.3 11.9 98 0.2 NNW 74 109 40 59 988.9 - 13.8
29/05:00am 12.7 1.4 12.1 96 0.3 NNW 63 83 34 45 989.2 989.2 12.0
29/04:30am 12.2 1.5 11.6 96 0.3 NNW 59 78 32 42 990.1 - 11.6
29/04:02am 12.4 3.4 11.5 94 0.5 NNW 50 70 27 38 991.1 - 10.8
29/04:00am 12.3 3.2 11.4 94 0.5 NNW 50 65 27 35 991.1 991.1 10.8
29/03:31am 12.5 1.6 10.9 90 0.8 NNW 59 80 32 43 992.2 - 10.4
29/03:30am 12.5 1.6 10.9 90 0.8 NNW 59 76 32 41 992.3 - 10.4
29/03:00am 12.7 1.1 11.1 90 0.8 NNW 63 83 34 45 993.3 993.3 10.4
29/02:49am 12.7 3.2 11.1 90 0.8 NNW 52 70 28 38 993.4 - 10.4
29/02:44am 12.6 3.4 11.0 90 0.8 NNW 50 61 27 33 993.6 - 10.4
29/02:30am 12.7 -0.1 10.9 89 0.9 NW 69 87 37 47 994.0 - 10.4
29/02:20am 12.8 1.2 11.0 89 0.9 NW 63 82 34 44 994.1 - 10.4
29/02:00am 12.5 0.6 11.4 93 0.6 NW 65 80 35 43 994.5 994.6 10.4
29/01:30am 11.6 -0.6 10.5 93 0.6 NW 65 82 35 44 995.1 - 10.0
29/01:08am 12.3 1.8 11.0 92 0.7 NNW 57 76 31 41 995.7 - 9.0
29/01:00am 12.3 1.3 10.5 89 0.9 NW 59 74 32 40 995.7 995.8 8.8
29/12:30am 12.3 1.9 10.7 90 0.8 NW 56 69 30 37 996.5 - 8.8
29/12:14am 12.4 1.7 10.3 87 1.1 NW 57 76 31 41 996.8 - 8.8
29/12:00am 12.4 2.0 10.5 88 1.0 NW 56 72 30 39 997.0 997.1 8.8
 
Date/Time
EST
Temp
°C
App
Temp
°C
Dew
Point
Rel
Hum
%
Delta-T
°C
Wind Press
QNH
hPa
Press
MSL
hPa
Rain
since 9 am
mm
Dir
 
Spd
km/h
Gust
km/h
Spd
kts
Gust
kts
28/11:55pm 12.2 2.2 10.6 90 0.8 NW 54 72 29 39 997.1 - 8.8
28/11:30pm 11.2 -0.9 9.5 89 0.9 NW 63 78 34 42 997.7 - 8.8
28/11:07pm 12.5 1.6 9.5 82 1.5 NW 57 93 31 50 997.6 - 8.4
28/11:03pm 12.7 3.3 10.2 85 1.3 NW 50 70 27 38 998.1 - 8.4
28/11:00pm 12.6 3.6 10.3 86 1.2 NW 48 59 26 32 998.1 998.2 8.4
28/10:30pm 12.4 1.3 10.3 87 1.1 NW 59 80 32 43 998.4 - 8.4
28/10:00pm 12.2 2.0 9.9 86 1.2 NNW 54 74 29 40 998.9 999.0 8.4
28/09:34pm 12.2 1.6 9.8 85 1.2 NNW 56 74 30 40 999.5 - 8.2
28/09:30pm 12.2 0.9 9.4 83 1.4 NW 59 74 32 40 999.5 - 8.2
28/09:09pm 12.4 -0.2 8.9 79 1.8 NNW 65 85 35 46 999.5 - 8.2
28/09:00pm 12.4 1.6 10.0 85 1.2 NNW 57 74 31 40 999.8 999.9 8.2
28/08:35pm 12.3 0.7 9.9 85 1.2 NW 61 80 33 43 999.7 - 8.2
28/08:30pm 12.1 -0.3 9.7 85 1.2 NW 65 82 35 44 999.6 - 8.2
28/08:02pm 12.1 0.8 9.3 83 1.4 NW 59 82 32 44 999.6 - 8.0
28/08:00pm 12.7 1.5 9.7 82 1.5 NW 59 74 32 40 999.7 999.8 8.0
28/07:30pm 12.4 1.2 9.8 84 1.3 NW 59 78 32 42 999.8 - 8.0
28/07:00pm 12.3 -0.6 10.4 88 1.0 NW 69 87 37 47 999.6 999.7 8.0
28/06:45pm 11.8 2.2 10.9 94 0.5 NW 52 72 28 39 999.6 - 8.0
28/06:44pm 11.8 2.6 10.9 94 0.5 NW 50 65 27 35 999.7 - 8.0
28/06:33pm 11.6 -1.8 10.7 94 0.5 NW 72 91 39 49 999.5 - 8.0
28/06:31pm 11.7 -2.1 10.9 95 0.4 NW 74 91 40 49 999.4 - 8.0
28/06:30pm 11.6 3.1 10.8 95 0.4 NW 46 91 25 49 999.5 - 8.0
28/06:29pm 11.6 4.1 10.8 95 0.4 NW 41 63 22 34 999.8 - 7.8
28/06:26pm 11.6 4.4 10.7 94 0.5 NW 39 46 21 25 999.9 - 7.8
28/06:00pm 11.9 1.2 10.3 90 0.8 NW 57 76 31 41 1000.1 1000.2 7.0
28/05:56pm 11.8 1.6 10.2 90 0.8 NW 54 76 29 41 1000.1 - 7.0
28/05:30pm 11.0 -0.5 10.1 94 0.5 NW 61 78 33 42 1000.3 - 7.0
28/05:04pm 11.2 -0.3 10.1 93 0.6 NNW 61 80 33 43 1000.4 - 6.0
28/05:00pm 11.1 -1.1 10.2 94 0.5 NNW 65 80 35 43 1000.4 1000.5 6.0
28/04:58pm 11.2 -1.7 10.4 95 0.4 NNW 69 80 37 43 1000.5 - 6.0
28/04:39pm 11.0 2.5 10.5 97 0.3 NW 46 67 25 36 1000.1 - 4.4
28/04:30pm 10.3 0.4 9.7 96 0.3 NW 52 67 28 36 1000.0 - 4.2
28/04:07pm 10.5 1.3 9.4 93 0.5 NW 48 69 26 37 1000.5 - 1.4
28/04:00pm 11.0 2.3 9.8 92 0.6 NW 46 57 25 31 1000.8 1000.9 0.8
28/03:58pm 10.8 2.0 9.4 91 0.7 NW 46 57 25 31 1000.7 - 0.8
28/03:34pm 11.1 -1.6 8.5 84 1.3 NW 65 72 35 39 1000.9 - 0.6
28/03:30pm 11.5 2.6 9.2 86 1.2 NNW 46 65 25 35 1001.1 - 0.6
28/03:00pm 11.2 1.6 9.3 88 1.0 NNW 50 72 27 39 1001.4 1001.5 0.4
28/02:41pm 12.7 2.3 9.3 80 1.7 NNW 54 72 29 39 1001.2 - 0.4
28/02:30pm 12.7 1.7 8.6 76 2.0 NNW 56 72 30 39 1001.0 - 0.4
28/02:00pm 12.9 2.3 8.6 75 2.2 NNW 54 69 29 37 1001.9 1002.0 0.4
28/01:30pm 12.7 1.6 7.8 72 2.4 NW 56 69 30 37 1002.5 - 0.4
28/01:09pm 12.6 1.4 8.5 76 2.0 NW 57 76 31 41 1003.2 - 0.4
28/01:00pm 12.4 0.3 7.7 73 2.3 NW 61 72 33 39 1003.2 1003.3 0.4
28/12:30pm 11.7 1.8 9.6 87 1.1 NW 52 85 28 46 1003.8 - 0.4
28/12:20pm 12.6 1.3 8.1 74 2.2 NW 57 78 31 42 1003.8 - 0.0
28/12:00pm 13.0 2.7 8.3 73 2.3 NW 52 63 28 34 1004.3 1004.4 0.0
28/11:30am 13.4 3.1 8.3 71 2.5 NW 52 65 28 35 1004.7 - 0.0
28/11:09am 12.7 3.3 8.6 76 2.0 NW 48 67 26 36 1005.0 - 0.0

Other Formats:

Comma delimited format used in spreadsheet applications
http://www.bom.gov.au/fwo/IDT60801/IDT60801.95961.axf

JavaScript Object Notation format (JSON) in row-major order
http://www.bom.gov.au/fwo/IDT60801/IDT60801.95961.json